KLKR

Details ICAO KLKR
Name LANCASTER CO MC WHIRTER FLD
Region United States
Timezone America/New_York (UTC-4.0)
Plans Departing 3
Arriving 4
Stats Elevation 486 ft / 148 m (AMSL)
Location 34.722904° -80.854590°
Runways 1
Magnetic Variation 7.692° W
Sunrise 2018-05-24 10:16:10 UTC / 2018-05-24 06:16:10 Local
Sunset 2018-05-25 00:27:15 UTC / 2018-05-24 20:27:15 Local
Advertisement - Login to hide

Runways

ID Width Length Bearing (true) Bearing (mag) Surface Threshold Offset Overrun Length
06 100 ft / 30 m 5,999 ft / 1,829 m 58.40° 66.09° Asphalt 0 ft / 0 m 0 ft / 0 m
24 100 ft / 30 m 5,999 ft / 1,829 m 238.41° 246.10° Asphalt 660 ft / 201 m 0 ft / 0 m

Map

Weather


0- 5 10 15 20 25 30 35+ Temperature / ° C

Clouds and Precipitation
Forecast for 2018-05-25 00:00 UTC. Updated 27 minutes ago

Ground ~20,000 ft ~40,000 ft Winds

METAR

KLKR 242335Z AUTO 19006KT 9SM SCT032 23/22 A3012 RMK AO2 LTG DSNT E AND SW

TAF

Not found

Frequencies

Unicom 122.72 MHz CTAF/UNICOM
Approach 120.05 MHz CHARLOTTE APP/DEP
Warning: Do not use this data for real-world aviation or navigation. No guarantee of current accuracy is given.